sensor_id;sensor_type;location;lat;lon;timestamp;pressure;altitude;pressure_sealevel;temperature;humidity
68594;BME280;55563;52.416;13.548;2023-07-29T00:01:27;100452.41;;;17.73;100.00
68594;BME280;55563;52.416;13.548;2023-07-29T00:03:27;100454.44;;;17.85;100.00
68594;BME280;55563;52.416;13.548;2023-07-29T00:05:30;100457.59;;;17.96;100.00
68594;BME280;55563;52.416;13.548;2023-07-29T00:07:31;100450.72;;;18.03;100.00
68594;BME280;55563;52.416;13.548;2023-07-29T00:09:31;100457.91;;;18.03;100.00
68594;BME280;55563;52.416;13.548;2023-07-29T00:11:32;100455.84;;;17.91;100.00
68594;BME280;55563;52.416;13.548;2023-07-29T00:13:34;100449.91;;;17.94;100.00
68594;BME280;55563;52.416;13.548;2023-07-29T00:15:34;100447.56;;;17.93;100.00
68594;BME280;55563;52.416;13.548;2023-07-29T00:17:35;100453.78;;;17.79;100.00
68594;BME280;55563;52.416;13.548;2023-07-29T00:19:36;100446.31;;;17.90;100.00
68594;BME280;55563;52.416;13.548;2023-07-29T00:21:36;100453.97;;;17.83;100.00
68594;BME280;55563;52.416;13.548;2023-07-29T00:23:37;100444.72;;;17.80;100.00
68594;BME280;55563;52.416;13.548;2023-07-29T00:25:38;100443.94;;;17.80;100.00
68594;BME280;55563;52.416;13.548;2023-07-29T00:27:38;100446.31;;;17.81;100.00
68594;BME280;55563;52.416;13.548;2023-07-29T00:29:39;100445.22;;;17.74;100.00
68594;BME280;55563;52.416;13.548;2023-07-29T00:31:40;100435.66;;;17.73;100.00
68594;BME280;55563;52.416;13.548;2023-07-29T00:33:40;100450.06;;;17.32;100.00
68594;BME280;55563;52.416;13.548;2023-07-29T00:35:41;100446.59;;;17.32;100.00
68594;BME280;55563;52.416;13.548;2023-07-29T00:37:42;100449.91;;;17.37;100.00
68594;BME280;55563;52.416;13.548;2023-07-29T00:39:42;100447.25;;;17.37;100.00
68594;BME280;55563;52.416;13.548;2023-07-29T00:41:43;100442.09;;;17.41;100.00
68594;BME280;55563;52.416;13.548;2023-07-29T00:43:44;100440.28;;;17.50;100.00
68594;BME280;55563;52.416;13.548;2023-07-29T00:45:46;100438.25;;;17.56;100.00
68594;BME280;55563;52.416;13.548;2023-07-29T00:47:48;100440.31;;;17.59;100.00
68594;BME280;55563;52.416;13.548;2023-07-29T00:49:51;100431.03;;;17.56;100.00
68594;BME280;55563;52.416;13.548;2023-07-29T00:51:51;100430.84;;;17.35;100.00
68594;BME280;55563;52.416;13.548;2023-07-29T00:53:52;100429.16;;;17.48;100.00
68594;BME280;55563;52.416;13.548;2023-07-29T00:55:53;100435.72;;;17.51;100.00
68594;BME280;55563;52.416;13.548;2023-07-29T00:57:54;100436.84;;;17.50;100.00
68594;BME280;55563;52.416;13.548;2023-07-29T00:59:55;100440.56;;;17.49;100.00
68594;BME280;55563;52.416;13.548;2023-07-29T01:01:56;100438.72;;;17.49;100.00
68594;BME280;55563;52.416;13.548;2023-07-29T01:03:58;100438.06;;;17.43;100.00
68594;BME280;55563;52.416;13.548;2023-07-29T01:06:18;100431.16;;;17.42;100.00
68594;BME280;55563;52.416;13.548;2023-07-29T01:08:33;100415.69;;;17.36;100.00
68594;BME280;55563;52.416;13.548;2023-07-29T01:10:51;100420.81;;;17.32;100.00
68594;BME280;55563;52.416;13.548;2023-07-29T01:15:19;100419.75;;;17.33;100.00
68594;BME280;55563;52.416;13.548;2023-07-29T01:17:25;100423.81;;;16.91;100.00
68594;BME280;55563;52.416;13.548;2023-07-29T01:21:58;100418.41;;;17.05;100.00
68594;BME280;55563;52.416;13.548;2023-07-29T01:23:59;100410.72;;;17.04;100.00
68594;BME280;55563;52.416;13.548;2023-07-29T01:26:01;100407.53;;;16.93;100.00
68594;BME280;55563;52.416;13.548;2023-07-29T01:28:01;100412.31;;;16.74;100.00
68594;BME280;55563;52.416;13.548;2023-07-29T01:30:03;100410.25;;;16.71;100.00
68594;BME280;55563;52.416;13.548;2023-07-29T01:32:11;100417.31;;;16.75;100.00
68594;BME280;55563;52.416;13.548;2023-07-29T01:34:20;100412.91;;;16.71;100.00
68594;BME280;55563;52.416;13.548;2023-07-29T01:36:27;100404.56;;;16.86;100.00
68594;BME280;55563;52.416;13.548;2023-07-29T01:38:32;100406.13;;;16.87;100.00
68594;BME280;55563;52.416;13.548;2023-07-29T01:40:35;100399.75;;;16.88;100.00
68594;BME280;55563;52.416;13.548;2023-07-29T01:42:36;100401.75;;;16.82;100.00
68594;BME280;55563;52.416;13.548;2023-07-29T01:44:38;100402.19;;;16.84;100.00
68594;BME280;55563;52.416;13.548;2023-07-29T01:46:40;100407.09;;;16.91;100.00
68594;BME280;55563;52.416;13.548;2023-07-29T01:48:41;100400.81;;;16.87;100.00
68594;BME280;55563;52.416;13.548;2023-07-29T01:50:59;100404.25;;;16.87;100.00
68594;BME280;55563;52.416;13.548;2023-07-29T01:53:00;100413.66;;;16.63;100.00
68594;BME280;55563;52.416;13.548;2023-07-29T01:55:01;100421.28;;;16.86;100.00
68594;BME280;55563;52.416;13.548;2023-07-29T01:57:02;100415.31;;;16.81;100.00
68594;BME280;55563;52.416;13.548;2023-07-29T01:59:03;100416.72;;;16.78;100.00
68594;BME280;55563;52.416;13.548;2023-07-29T02:01:04;100411.75;;;16.85;100.00
68594;BME280;55563;52.416;13.548;2023-07-29T02:03:05;100421.28;;;16.86;100.00
68594;BME280;55563;52.416;13.548;2023-07-29T02:05:06;100418.75;;;16.81;100.00
68594;BME280;55563;52.416;13.548;2023-07-29T02:07:07;100414.25;;;16.60;100.00
68594;BME280;55563;52.416;13.548;2023-07-29T02:09:07;100407.59;;;16.48;100.00
68594;BME280;55563;52.416;13.548;2023-07-29T02:11:08;100412.47;;;16.55;100.00
68594;BME280;55563;52.416;13.548;2023-07-29T02:13:09;100426.19;;;16.71;100.00
68594;BME280;55563;52.416;13.548;2023-07-29T02:15:10;100427.50;;;16.82;100.00
68594;BME280;55563;52.416;13.548;2023-07-29T02:17:11;100430.91;;;16.74;100.00
68594;BME280;55563;52.416;13.548;2023-07-29T02:19:11;100431.16;;;16.50;100.00
68594;BME280;55563;52.416;13.548;2023-07-29T02:21:12;100420.44;;;16.55;100.00
68594;BME280;55563;52.416;13.548;2023-07-29T02:23:13;100422.88;;;16.65;100.00
68594;BME280;55563;52.416;13.548;2023-07-29T02:25:14;100430.28;;;16.54;100.00
68594;BME280;55563;52.416;13.548;2023-07-29T02:27:14;100426.84;;;16.54;100.00
68594;BME280;55563;52.416;13.548;2023-07-29T02:29:16;100428.38;;;16.55;100.00
68594;BME280;55563;52.416;13.548;2023-07-29T02:31:21;100425.56;;;16.51;100.00
68594;BME280;55563;52.416;13.548;2023-07-29T02:33:22;100416.41;;;16.57;100.00
68594;BME280;55563;52.416;13.548;2023-07-29T02:35:23;100419.34;;;16.56;100.00
68594;BME280;55563;52.416;13.548;2023-07-29T02:37:24;100412.00;;;16.53;100.00
68594;BME280;55563;52.416;13.548;2023-07-29T02:39:25;100422.19;;;16.60;100.00
68594;BME280;55563;52.416;13.548;2023-07-29T02:41:26;100422.00;;;16.56;100.00
68594;BME280;55563;52.416;13.548;2023-07-29T02:43:26;100420.25;;;16.51;100.00
68594;BME280;55563;52.416;13.548;2023-07-29T02:45:27;100413.81;;;16.44;100.00
68594;BME280;55563;52.416;13.548;2023-07-29T02:47:28;100420.97;;;15.99;100.00
68594;BME280;55563;52.416;13.548;2023-07-29T02:49:28;100428.78;;;16.04;100.00
68594;BME280;55563;52.416;13.548;2023-07-29T02:51:30;100421.44;;;16.01;100.00
68594;BME280;55563;52.416;13.548;2023-07-29T02:53:31;100417.06;;;15.96;100.00
68594;BME280;55563;52.416;13.548;2023-07-29T02:55:32;100416.94;;;16.01;100.00
68594;BME280;55563;52.416;13.548;2023-07-29T02:57:33;100419.19;;;15.94;100.00
68594;BME280;55563;52.416;13.548;2023-07-29T02:59:34;100427.75;;;15.91;100.00
68594;BME280;55563;52.416;13.548;2023-07-29T03:01:35;100422.72;;;16.03;100.00
68594;BME280;55563;52.416;13.548;2023-07-29T03:03:36;100427.19;;;16.17;100.00
68594;BME280;55563;52.416;13.548;2023-07-29T03:05:38;100423.63;;;16.21;100.00
68594;BME280;55563;52.416;13.548;2023-07-29T03:07:38;100430.38;;;16.27;100.00
68594;BME280;55563;52.416;13.548;2023-07-29T03:09:39;100415.66;;;16.21;100.00
68594;BME280;55563;52.416;13.548;2023-07-29T03:11:43;100415.94;;;16.11;100.00
68594;BME280;55563;52.416;13.548;2023-07-29T03:13:43;100416.22;;;16.09;100.00
68594;BME280;55563;52.416;13.548;2023-07-29T03:15:44;100416.56;;;16.17;100.00
68594;BME280;55563;52.416;13.548;2023-07-29T03:17:45;100414.53;;;16.13;100.00
68594;BME280;55563;52.416;13.548;2023-07-29T03:19:46;100413.50;;;16.23;100.00
68594;BME280;55563;52.416;13.548;2023-07-29T03:21:46;100409.69;;;15.93;100.00
68594;BME280;55563;52.416;13.548;2023-07-29T03:23:47;100416.50;;;16.08;100.00
68594;BME280;55563;52.416;13.548;2023-07-29T03:25:49;100412.06;;;16.17;100.00
68594;BME280;55563;52.416;13.548;2023-07-29T03:27:51;100413.00;;;16.21;100.00
68594;BME280;55563;52.416;13.548;2023-07-29T03:29:52;100404.22;;;16.12;100.00
68594;BME280;55563;52.416;13.548;2023-07-29T03:31:53;100409.75;;;16.02;100.00
68594;BME280;55563;52.416;13.548;2023-07-29T03:33:54;100412.81;;;15.95;100.00
68594;BME280;55563;52.416;13.548;2023-07-29T03:35:55;100412.28;;;16.07;100.00
68594;BME280;55563;52.416;13.548;2023-07-29T03:37:56;100410.53;;;16.02;100.00
68594;BME280;55563;52.416;13.548;2023-07-29T03:39:56;100409.00;;;16.01;100.00
68594;BME280;55563;52.416;13.548;2023-07-29T03:41:58;100407.59;;;16.04;100.00
68594;BME280;55563;52.416;13.548;2023-07-29T03:43:58;100414.88;;;15.98;100.00
68594;BME280;55563;52.416;13.548;2023-07-29T03:46:00;100418.69;;;16.06;100.00
68594;BME280;55563;52.416;13.548;2023-07-29T03:48:02;100417.69;;;16.16;100.00
68594;BME280;55563;52.416;13.548;2023-07-29T03:50:04;100421.84;;;15.94;100.00
68594;BME280;55563;52.416;13.548;2023-07-29T03:52:04;100429.28;;;16.06;100.00
68594;BME280;55563;52.416;13.548;2023-07-29T03:54:06;100416.78;;;16.20;100.00
68594;BME280;55563;52.416;13.548;2023-07-29T03:56:07;100410.09;;;16.67;100.00
68594;BME280;55563;52.416;13.548;2023-07-29T03:58:08;100414.38;;;17.16;100.00
68594;BME280;55563;52.416;13.548;2023-07-29T04:00:09;100404.16;;;17.58;100.00
68594;BME280;55563;52.416;13.548;2023-07-29T04:02:26;100393.75;;;18.21;100.00
68594;BME280;55563;52.416;13.548;2023-07-29T04:04:27;100390.28;;;18.38;100.00
68594;BME280;55563;52.416;13.548;2023-07-29T04:06:28;100389.81;;;18.53;100.00
68594;BME280;55563;52.416;13.548;2023-07-29T04:08:28;100378.88;;;18.93;100.00
68594;BME280;55563;52.416;13.548;2023-07-29T04:10:33;100374.75;;;19.33;100.00
68594;BME280;55563;52.416;13.548;2023-07-29T04:12:35;100369.81;;;19.94;100.00
68594;BME280;55563;52.416;13.548;2023-07-29T04:14:36;100365.19;;;20.36;100.00
68594;BME280;55563;52.416;13.548;2023-07-29T04:16:37;100368.13;;;20.43;100.00
68594;BME280;55563;52.416;13.548;2023-07-29T04:18:37;100364.78;;;20.58;100.00
68594;BME280;55563;52.416;13.548;2023-07-29T04:20:38;100356.81;;;20.95;100.00
68594;BME280;55563;52.416;13.548;2023-07-29T04:22:39;100360.94;;;21.04;100.00
68594;BME280;55563;52.416;13.548;2023-07-29T04:24:40;100364.00;;;21.67;100.00
68594;BME280;55563;52.416;13.548;2023-07-29T04:26:40;100359.81;;;21.94;100.00
68594;BME280;55563;52.416;13.548;2023-07-29T04:28:42;100364.47;;;21.97;100.00
68594;BME280;55563;52.416;13.548;2023-07-29T04:30:43;100358.19;;;22.64;100.00
68594;BME280;55563;52.416;13.548;2023-07-29T04:32:44;100348.25;;;22.49;100.00
68594;BME280;55563;52.416;13.548;2023-07-29T04:34:45;100353.91;;;20.87;100.00
68594;BME280;55563;52.416;13.548;2023-07-29T04:36:46;100361.88;;;19.85;100.00
68594;BME280;55563;52.416;13.548;2023-07-29T04:38:47;100367.22;;;19.65;100.00
68594;BME280;55563;52.416;13.548;2023-07-29T04:40:49;100370.47;;;19.70;100.00
68594;BME280;55563;52.416;13.548;2023-07-29T04:42:51;100376.66;;;21.30;100.00
68594;BME280;55563;52.416;13.548;2023-07-29T04:44:51;100379.75;;;22.24;100.00
68594;BME280;55563;52.416;13.548;2023-07-29T04:46:52;100373.44;;;22.91;100.00
68594;BME280;55563;52.416;13.548;2023-07-29T04:48:53;100377.81;;;22.52;100.00
68594;BME280;55563;52.416;13.548;2023-07-29T04:50:53;100379.25;;;22.78;100.00
68594;BME280;55563;52.416;13.548;2023-07-29T04:52:54;100383.53;;;23.14;100.00
68594;BME280;55563;52.416;13.548;2023-07-29T04:54:55;100385.50;;;23.17;100.00
68594;BME280;55563;52.416;13.548;2023-07-29T04:56:55;100371.34;;;22.10;100.00
68594;BME280;55563;52.416;13.548;2023-07-29T04:58:56;100364.38;;;20.93;100.00
68594;BME280;55563;52.416;13.548;2023-07-29T05:00:57;100367.72;;;20.77;100.00
68594;BME280;55563;52.416;13.548;2023-07-29T05:02:57;100371.34;;;20.49;100.00
68594;BME280;55563;52.416;13.548;2023-07-29T05:04:58;100371.88;;;20.09;100.00
68594;BME280;55563;52.416;13.548;2023-07-29T05:06:59;100371.38;;;19.95;100.00
68594;BME280;55563;52.416;13.548;2023-07-29T05:09:12;100369.41;;;19.83;100.00
68594;BME280;55563;52.416;13.548;2023-07-29T05:11:13;100365.06;;;19.79;100.00
68594;BME280;55563;52.416;13.548;2023-07-29T05:13:14;100374.81;;;19.75;100.00
68594;BME280;55563;52.416;13.548;2023-07-29T05:15:15;100365.13;;;19.70;100.00
68594;BME280;55563;52.416;13.548;2023-07-29T05:17:15;100368.97;;;19.61;100.00
68594;BME280;55563;52.416;13.548;2023-07-29T05:19:16;100366.94;;;19.57;100.00
68594;BME280;55563;52.416;13.548;2023-07-29T05:21:17;100398.50;;;20.30;100.00
68594;BME280;55563;52.416;13.548;2023-07-29T05:23:18;100365.16;;;20.81;100.00
68594;BME280;55563;52.416;13.548;2023-07-29T05:25:19;100385.09;;;21.08;100.00
68594;BME280;55563;52.416;13.548;2023-07-29T05:27:20;100395.50;;;23.51;100.00
68594;BME280;55563;52.416;13.548;2023-07-29T05:29:21;100354.22;;;21.99;100.00
68594;BME280;55563;52.416;13.548;2023-07-29T05:31:22;100354.19;;;21.19;100.00
68594;BME280;55563;52.416;13.548;2023-07-29T05:33:23;100354.69;;;21.37;100.00
68594;BME280;55563;52.416;13.548;2023-07-29T05:35:24;100394.66;;;22.69;100.00
68594;BME280;55563;52.416;13.548;2023-07-29T05:37:25;100388.22;;;23.01;100.00
68594;BME280;55563;52.416;13.548;2023-07-29T05:39:25;100359.22;;;23.76;100.00
68594;BME280;55563;52.416;13.548;2023-07-29T05:41:26;100357.34;;;22.16;100.00
68594;BME280;55563;52.416;13.548;2023-07-29T05:43:28;100360.91;;;21.53;100.00
68594;BME280;55563;52.416;13.548;2023-07-29T05:45:29;100358.25;;;21.53;100.00
68594;BME280;55563;52.416;13.548;2023-07-29T05:47:31;100365.88;;;21.14;100.00
68594;BME280;55563;52.416;13.548;2023-07-29T05:49:32;100361.41;;;21.18;100.00
68594;BME280;55563;52.416;13.548;2023-07-29T05:51:34;100368.59;;;21.06;100.00
68594;BME280;55563;52.416;13.548;2023-07-29T05:53:34;100361.72;;;21.05;100.00
68594;BME280;55563;52.416;13.548;2023-07-29T05:55:35;100360.78;;;21.89;100.00
68594;BME280;55563;52.416;13.548;2023-07-29T05:57:36;100351.94;;;23.23;100.00
68594;BME280;55563;52.416;13.548;2023-07-29T05:59:36;100349.88;;;24.09;100.00
68594;BME280;55563;52.416;13.548;2023-07-29T06:01:37;100355.19;;;24.47;100.00
68594;BME280;55563;52.416;13.548;2023-07-29T06:03:38;100349.19;;;24.12;100.00
68594;BME280;55563;52.416;13.548;2023-07-29T06:05:39;100345.06;;;25.09;100.00
68594;BME280;55563;52.416;13.548;2023-07-29T06:07:39;100342.00;;;24.61;100.00
68594;BME280;55563;52.416;13.548;2023-07-29T06:09:45;100337.47;;;24.01;100.00
68594;BME280;55563;52.416;13.548;2023-07-29T06:11:46;100327.41;;;23.05;100.00
68594;BME280;55563;52.416;13.548;2023-07-29T06:13:47;100332.97;;;22.96;100.00
68594;BME280;55563;52.416;13.548;2023-07-29T06:15:49;100336.97;;;23.95;100.00
68594;BME280;55563;52.416;13.548;2023-07-29T06:17:50;100335.22;;;23.83;100.00
68594;BME280;55563;52.416;13.548;2023-07-29T06:19:51;100328.59;;;23.58;100.00
68594;BME280;55563;52.416;13.548;2023-07-29T06:21:55;100329.59;;;23.34;100.00
68594;BME280;55563;52.416;13.548;2023-07-29T06:23:56;100330.19;;;23.63;100.00
68594;BME280;55563;52.416;13.548;2023-07-29T06:25:57;100330.72;;;24.10;100.00
68594;BME280;55563;52.416;13.548;2023-07-29T06:27:58;100325.81;;;23.93;100.00
68594;BME280;55563;52.416;13.548;2023-07-29T06:29:58;100325.13;;;23.58;100.00
68594;BME280;55563;52.416;13.548;2023-07-29T06:31:59;100326.16;;;23.18;100.00
68594;BME280;55563;52.416;13.548;2023-07-29T06:34:00;100328.03;;;24.10;100.00
68594;BME280;55563;52.416;13.548;2023-07-29T06:36:00;100332.06;;;24.65;100.00
68594;BME280;55563;52.416;13.548;2023-07-29T06:38:01;100327.75;;;24.15;100.00
68594;BME280;55563;52.416;13.548;2023-07-29T06:40:01;100324.03;;;24.01;100.00
68594;BME280;55563;52.416;13.548;2023-07-29T06:42:02;100321.28;;;25.41;100.00
68594;BME280;55563;52.416;13.548;2023-07-29T06:44:03;100325.56;;;24.89;100.00
68594;BME280;55563;52.416;13.548;2023-07-29T06:46:04;100331.72;;;25.46;100.00
68594;BME280;55563;52.416;13.548;2023-07-29T06:48:05;100325.03;;;26.33;100.00
68594;BME280;55563;52.416;13.548;2023-07-29T06:50:06;100326.41;;;26.20;100.00
68594;BME280;55563;52.416;13.548;2023-07-29T06:52:06;100332.34;;;26.32;100.00
68594;BME280;55563;52.416;13.548;2023-07-29T06:54:07;100334.63;;;25.60;100.00
68594;BME280;55563;52.416;13.548;2023-07-29T06:56:08;100330.97;;;25.75;100.00
68594;BME280;55563;52.416;13.548;2023-07-29T06:58:09;100324.19;;;26.73;100.00
68594;BME280;55563;52.416;13.548;2023-07-29T07:00:09;100329.78;;;27.01;100.00
68594;BME280;55563;52.416;13.548;2023-07-29T07:02:10;100341.44;;;27.12;100.00
68594;BME280;55563;52.416;13.548;2023-07-29T07:04:11;100333.75;;;27.18;100.00
68594;BME280;55563;52.416;13.548;2023-07-29T07:06:11;100330.41;;;26.80;100.00
68594;BME280;55563;52.416;13.548;2023-07-29T07:08:12;100334.28;;;25.98;100.00
68594;BME280;55563;52.416;13.548;2023-07-29T07:10:14;100340.41;;;25.95;100.00
68594;BME280;55563;52.416;13.548;2023-07-29T07:12:14;100335.44;;;25.38;100.00
68594;BME280;55563;52.416;13.548;2023-07-29T07:14:15;100344.09;;;25.80;100.00
68594;BME280;55563;52.416;13.548;2023-07-29T07:16:15;100339.44;;;25.17;100.00
68594;BME280;55563;52.416;13.548;2023-07-29T07:18:16;100347.38;;;25.10;100.00
68594;BME280;55563;52.416;13.548;2023-07-29T07:20:17;100338.63;;;24.91;100.00
68594;BME280;55563;52.416;13.548;2023-07-29T07:22:17;100339.16;;;24.51;100.00
68594;BME280;55563;52.416;13.548;2023-07-29T07:24:18;100342.97;;;24.50;100.00
68594;BME280;55563;52.416;13.548;2023-07-29T07:26:19;100338.34;;;24.73;100.00
68594;BME280;55563;52.416;13.548;2023-07-29T07:28:19;100345.59;;;24.69;100.00
68594;BME280;55563;52.416;13.548;2023-07-29T07:30:20;100334.22;;;24.79;100.00
68594;BME280;55563;52.416;13.548;2023-07-29T07:32:20;100337.22;;;24.74;100.00
68594;BME280;55563;52.416;13.548;2023-07-29T07:34:21;100338.97;;;24.40;100.00
68594;BME280;55563;52.416;13.548;2023-07-29T07:36:21;100339.22;;;24.31;100.00
68594;BME280;55563;52.416;13.548;2023-07-29T07:38:22;100342.41;;;24.18;100.00
68594;BME280;55563;52.416;13.548;2023-07-29T07:40:23;100328.53;;;24.16;100.00
68594;BME280;55563;52.416;13.548;2023-07-29T07:42:23;100331.31;;;24.00;100.00
68594;BME280;55563;52.416;13.548;2023-07-29T07:44:24;100331.38;;;24.46;100.00
68594;BME280;55563;52.416;13.548;2023-07-29T07:46:26;100334.47;;;24.06;100.00
68594;BME280;55563;52.416;13.548;2023-07-29T07:48:27;100335.00;;;23.92;100.00
68594;BME280;55563;52.416;13.548;2023-07-29T07:50:29;100335.84;;;23.77;100.00
68594;BME280;55563;52.416;13.548;2023-07-29T07:52:30;100336.19;;;23.75;100.00
68594;BME280;55563;52.416;13.548;2023-07-29T07:54:31;100334.16;;;23.69;100.00
68594;BME280;55563;52.416;13.548;2023-07-29T07:56:31;100329.78;;;23.61;100.00
68594;BME280;55563;52.416;13.548;2023-07-29T07:58:32;100323.56;;;23.57;100.00
68594;BME280;55563;52.416;13.548;2023-07-29T08:00:33;100318.22;;;23.41;100.00
68594;BME280;55563;52.416;13.548;2023-07-29T08:02:34;100307.56;;;23.25;100.00
68594;BME280;55563;52.416;13.548;2023-07-29T08:04:34;100318.94;;;23.38;100.00
68594;BME280;55563;52.416;13.548;2023-07-29T08:06:35;100314.28;;;23.35;100.00
68594;BME280;55563;52.416;13.548;2023-07-29T08:08:36;100323.94;;;23.20;100.00
68594;BME280;55563;52.416;13.548;2023-07-29T08:10:36;100326.50;;;23.17;100.00
68594;BME280;55563;52.416;13.548;2023-07-29T08:12:37;100321.44;;;23.12;100.00
68594;BME280;55563;52.416;13.548;2023-07-29T08:14:37;100314.53;;;23.11;100.00
68594;BME280;55563;52.416;13.548;2023-07-29T08:16:38;100309.44;;;23.06;100.00
68594;BME280;55563;52.416;13.548;2023-07-29T08:18:39;100307.56;;;23.25;100.00
68594;BME280;55563;52.416;13.548;2023-07-29T08:20:39;100307.69;;;23.32;100.00
68594;BME280;55563;52.416;13.548;2023-07-29T08:22:40;100315.28;;;23.46;100.00
68594;BME280;55563;52.416;13.548;2023-07-29T08:24:40;100314.16;;;23.47;100.00
68594;BME280;55563;52.416;13.548;2023-07-29T08:26:41;100309.13;;;23.45;100.00
68594;BME280;55563;52.416;13.548;2023-07-29T08:28:42;100309.56;;;23.48;100.00
68594;BME280;55563;52.416;13.548;2023-07-29T08:30:42;100310.28;;;23.44;100.00
68594;BME280;55563;52.416;13.548;2023-07-29T08:32:43;100305.19;;;23.39;100.00
68594;BME280;55563;52.416;13.548;2023-07-29T08:34:45;100303.09;;;23.14;100.00
68594;BME280;55563;52.416;13.548;2023-07-29T08:36:45;100289.56;;;23.26;100.00
68594;BME280;55563;52.416;13.548;2023-07-29T08:38:46;100298.41;;;23.45;100.00
68594;BME280;55563;52.416;13.548;2023-07-29T08:40:59;100291.78;;;23.59;100.00
68594;BME280;55563;52.416;13.548;2023-07-29T08:43:06;100294.75;;;23.54;100.00
68594;BME280;55563;52.416;13.548;2023-07-29T08:45:08;100293.63;;;23.55;100.00
68594;BME280;55563;52.416;13.548;2023-07-29T08:47:09;100288.34;;;23.58;100.00
68594;BME280;55563;52.416;13.548;2023-07-29T08:49:12;100292.41;;;23.71;100.00
68594;BME280;55563;52.416;13.548;2023-07-29T08:51:29;100290.00;;;23.66;100.00
68594;BME280;55563;52.416;13.548;2023-07-29T08:53:30;100284.53;;;23.59;100.00
68594;BME280;55563;52.416;13.548;2023-07-29T08:55:32;100294.53;;;23.81;100.00
68594;BME280;55563;52.416;13.548;2023-07-29T08:57:34;100288.00;;;24.02;100.00
68594;BME280;55563;52.416;13.548;2023-07-29T08:59:36;100293.88;;;23.88;100.00
68594;BME280;55563;52.416;13.548;2023-07-29T09:01:38;100294.19;;;23.83;100.00
68594;BME280;55563;52.416;13.548;2023-07-29T09:03:40;100291.25;;;23.92;100.00
68594;BME280;55563;52.416;13.548;2023-07-29T09:05:41;100285.50;;;24.12;100.00
68594;BME280;55563;52.416;13.548;2023-07-29T09:07:42;100285.44;;;24.09;100.00
68594;BME280;55563;52.416;13.548;2023-07-29T09:09:44;100286.16;;;24.06;100.00
68594;BME280;55563;52.416;13.548;2023-07-29T09:11:45;100276.03;;;23.76;100.00
68594;BME280;55563;52.416;13.548;2023-07-29T09:13:46;100279.53;;;23.80;100.00
68594;BME280;55563;52.416;13.548;2023-07-29T09:15:46;100279.09;;;23.98;100.00
68594;BME280;55563;52.416;13.548;2023-07-29T09:17:47;100280.06;;;24.09;100.00
68594;BME280;55563;52.416;13.548;2023-07-29T09:19:49;100272.72;;;24.06;100.00
68594;BME280;55563;52.416;13.548;2023-07-29T09:21:50;100277.94;;;24.18;100.00
68594;BME280;55563;52.416;13.548;2023-07-29T09:23:51;100271.50;;;24.22;100.00
68594;BME280;55563;52.416;13.548;2023-07-29T09:26:00;100266.97;;;24.26;100.00
68594;BME280;55563;52.416;13.548;2023-07-29T09:28:02;100274.91;;;24.19;100.00
68594;BME280;55563;52.416;13.548;2023-07-29T09:30:15;100265.22;;;24.60;100.00
68594;BME280;55563;52.416;13.548;2023-07-29T09:32:21;100267.97;;;24.67;100.00
68594;BME280;55563;52.416;13.548;2023-07-29T09:34:22;100267.00;;;24.79;100.00
68594;BME280;55563;52.416;13.548;2023-07-29T09:36:23;100259.31;;;24.77;100.00
68594;BME280;55563;52.416;13.548;2023-07-29T09:38:27;100250.88;;;25.05;100.00
68594;BME280;55563;52.416;13.548;2023-07-29T09:40:34;100246.13;;;24.95;100.00
68594;BME280;55563;52.416;13.548;2023-07-29T09:42:34;100244.03;;;24.85;100.00
68594;BME280;55563;52.416;13.548;2023-07-29T09:44:36;100246.03;;;24.88;100.00
68594;BME280;55563;52.416;13.548;2023-07-29T09:46:37;100252.19;;;24.89;100.00
68594;BME280;55563;52.416;13.548;2023-07-29T09:48:38;100252.00;;;24.78;100.00
68594;BME280;55563;52.416;13.548;2023-07-29T09:50:40;100248.19;;;24.79;100.00
68594;BME280;55563;52.416;13.548;2023-07-29T09:52:42;100250.16;;;24.82;100.00
68594;BME280;55563;52.416;13.548;2023-07-29T09:54:44;100246.91;;;25.26;100.00
68594;BME280;55563;52.416;13.548;2023-07-29T09:56:45;100229.94;;;25.22;100.00
68594;BME280;55563;52.416;13.548;2023-07-29T09:58:47;100227.78;;;25.04;100.00
68594;BME280;55563;52.416;13.548;2023-07-29T10:00:48;100225.38;;;25.26;100.00
68594;BME280;55563;52.416;13.548;2023-07-29T10:02:49;100224.69;;;25.32;100.00
68594;BME280;55563;52.416;13.548;2023-07-29T10:04:51;100221.88;;;25.22;100.00
68594;BME280;55563;52.416;13.548;2023-07-29T10:06:53;100224.59;;;25.25;100.00
68594;BME280;55563;52.416;13.548;2023-07-29T10:08:54;100223.81;;;25.25;100.00
68594;BME280;55563;52.416;13.548;2023-07-29T10:10:55;100233.31;;;25.48;100.00
68594;BME280;55563;52.416;13.548;2023-07-29T10:12:57;100226.56;;;25.61;100.00
68594;BME280;55563;52.416;13.548;2023-07-29T10:15:01;100219.06;;;25.44;100.00
68594;BME280;55563;52.416;13.548;2023-07-29T10:17:02;100220.56;;;25.42;100.00
68594;BME280;55563;52.416;13.548;2023-07-29T10:19:04;100220.13;;;25.36;100.00
68594;BME280;55563;52.416;13.548;2023-07-29T10:21:05;100220.38;;;25.28;100.00
68594;BME280;55563;52.416;13.548;2023-07-29T10:23:07;100211.59;;;25.31;100.00
68594;BME280;55563;52.416;13.548;2023-07-29T10:25:15;100205.00;;;25.25;100.00